KRYYKDBN

Guest
Details From KRYY - Cobb Co Mc Collum Fld
To KDBN - W H Bud Barron
Flight Number -
Tags Decoded
Created
Modified
Stats Distance 129 nm / 239 km
Max Altitude 0 ft / 0 m
Waypoints 3
Social Downloads 1
Likes 0
Share VATSIM

Download

Looking for another format? Having issues loading an existing format? Contact us
Advertisement - Login to hide

Notes

Decoded

Route

KRYY TUCKR DBN

ID Type Via Altitude Latitude Longitude Leg Dist Tot Dist Heading (true) Name
O KRYY APT - 0 ft / 0 m 34.01301˚ -84.60740˚ - 0 nm - -
TUCKR FIX - 0 ft / 0 m 33.75242˚ -83.84839˚ 40 nm 40 nm 112° / 113° -
O DBN VOR - 0 ft / 0 m 32.56344˚ -82.83001˚ 87 nm 128 nm 144° / 145° DUBLIN VORTAC

Altitude Profile

Advertisement - Login to hide

KRYY

Details ICAO KRYY (RYY)
Name COBB CO MC COLLUM FLD
Region United States
Timezone America/New_York (UTC-5.0)
Stats Elevation 1,040 ft / 317 m (AMSL)
Location 34.013193° -84.597000°
Runways 1
Magnetic Variation 5.029° W

METAR

KRYY 111248Z 25003KT 10SM CLR M03/M04 A3020 RMK AO2 SLP952 T10331039 $

Decode

TAF

TAF KRYY 111136Z 1112/1212 23003KT P6SM SKC FM111800 25008KT P6SM FEW070 FM112300 24005KT P6SM FEW250 FM121100 30010KT P6SM BKN250

Decode

Departure Runways

ID Width Length Bearing (true) Bearing (mag) Surface Threshold Offset Overrun Length
09 75 ft / 23 m 6,293 ft / 1,918 m 88.76° 93.79° Asphalt 1,073 ft / 327 m 840 ft / 256 m
27 75 ft / 23 m 6,293 ft / 1,918 m 268.78° 273.81° Asphalt 0 ft / 0 m 0 ft / 0 m

KDBN

Details ICAO KDBN
Name W H BUD BARRON
Region United States
Timezone America/New_York (UTC-5.0)
Stats Elevation 309 ft / 94 m (AMSL)
Location 32.564324° -82.985574°
Runways 2
Magnetic Variation 5.919° W

METAR

KDBN 111335Z AUTO 26005KT 10SM CLR 01/M01 A3026 RMK AO2

Decode

TAF

Not found

Destination Runways

ID Width Length Bearing (true) Bearing (mag) Surface Threshold Offset Overrun Length
02 150 ft / 46 m 6,018 ft / 1,834 m 16.23° 22.15° Asphalt 0 ft / 0 m 0 ft / 0 m
14 150 ft / 46 m 5,006 ft / 1,526 m 136.47° 142.39° Asphalt 591 ft / 180 m 0 ft / 0 m
20 150 ft / 46 m 6,018 ft / 1,834 m 196.24° 202.16° Asphalt 0 ft / 0 m 0 ft / 0 m
32 150 ft / 46 m 5,006 ft / 1,526 m 316.48° 322.40° Asphalt 0 ft / 0 m 0 ft / 0 m